Archival Weather

Half Moon Bay

Half Moon Bay, California (KHAF)

Report from: Wednesday, December 6, 2023 2:35 PM PST
Current time: Saturday, February 24, 2024 7:41 AM PST

Current weather – Weather history – Daily summaries
Weather forecast

Present weatherMist
Temperature14.0°C (57.2°F)
Dew point14.0°C (57.2°F)
Winds 15 kts (7.7 m/s, 17.3 mph) South (170°)
Visibility6 mi. (9.7 km)
Clouds Scattered clouds 1,900 ft. (579 m)
Ceiling: Broken clouds 2,900 ft. (884 m)
Overcast 3,600 ft. (1,097 m)
Altimeter30.01 in.Hg (1016 mB)
Relative humidity100 %
Density altitude1 ft. (0 m)
Remarks Fully automated report
Automated weather observing station with precipitation discriminator
Flight conditions Marginal Visual Meteorological Conditions
Raw dataKHAF 062235Z AUTO 17015KT 6SM BR SCT019 BKN029 OVC036 14/14 A3001 RMK AO2
An error has occurred. This application may no longer respond until reloaded. Reload 🗙